Time;durP1;ratioP1;P1;durP2;ratioP2;P2;SDS_P1;SDS_P2;PMS_P1;PMS_P2;Temp;Humidity;BMP_temperature;BMP_pressure;BME280_temperature;BME280_humidity;BME280_pressure;Samples;Min_cycle;Max_cycle;Signal;HPM_P1;HPM_P2
2023/08/13 00:00:02;;;;;;;18.25;16.85;;;;;;;24.54;49.03;100262.31;4975627;28;99132;-77
2023/08/13 00:02:27;;;;;;;18.08;16.80;;;;;;;24.52;49.00;100253.53;4994488;28;97184;-77
2023/08/13 00:04:53;;;;;;;18.63;17.23;;;;;;;24.54;49.56;100270.34;4993962;28;96871;-78
2023/08/13 00:07:19;;;;;;;18.90;17.48;;;;;;;24.55;49.32;100263.97;4990066;28;99930;-77
2023/08/13 00:09:44;;;;;;;19.08;17.73;;;;;;;24.52;49.50;100259.78;4991282;28;98740;-77
2023/08/13 00:12:10;;;;;;;19.55;18.25;;;;;;;24.51;49.56;100267.97;4989886;28;97034;-77
2023/08/13 00:14:35;;;;;;;19.17;17.88;;;;;;;24.55;49.50;100272.03;4989986;28;97121;-78
2023/08/13 00:17:01;;;;;;;18.65;17.20;;;;;;;24.58;49.67;100266.38;4988863;28;98968;-77
2023/08/13 00:19:27;;;;;;;18.70;17.42;;;;;;;24.55;49.63;100272.03;4993794;28;98303;-78
2023/08/13 00:21:52;;;;;;;18.98;17.65;;;;;;;24.55;49.58;100270.22;4983407;28;96921;-77
2023/08/13 00:24:18;;;;;;;19.98;18.17;;;;;;;24.55;50.16;100262.16;4981356;28;96882;-77
2023/08/13 00:26:43;;;;;;;18.65;17.25;;;;;;;24.47;49.83;100263.88;4980176;28;98893;-78
2023/08/13 00:29:09;;;;;;;19.38;17.48;;;;;;;24.27;50.40;100268.38;4993660;28;98334;-77
2023/08/13 00:31:34;;;;;;;19.25;17.70;;;;;;;24.31;50.49;100273.28;4975728;28;96712;-78
2023/08/13 00:34:00;;;;;;;19.20;17.70;;;;;;;24.36;50.22;100271.03;4994109;28;97491;-77
2023/08/13 00:36:25;;;;;;;18.15;16.85;;;;;;;24.34;50.23;100267.66;4975256;28;100688;-77
2023/08/13 00:38:52;;;;;;;19.45;17.95;;;;;;;24.37;50.57;100270.03;4959554;28;100466;-77
2023/08/13 00:41:17;;;;;;;20.00;18.58;;;;;;;24.42;50.60;100271.47;4975621;28;96842;-77
2023/08/13 00:43:43;;;;;;;19.65;18.35;;;;;;;24.41;50.60;100270.63;4980230;28;96903;-77
2023/08/13 00:46:11;;;;;;;19.27;17.23;;;;;;;24.29;50.71;100279.78;4975617;28;100651;-77
2023/08/13 00:48:39;;;;;;;19.20;17.95;;;;;;;24.05;51.28;100290.94;4975527;28;98885;-77
2023/08/13 00:51:05;;;;;;;18.75;17.50;;;;;;;24.03;51.46;100285.72;4966756;28;97304;-77
2023/08/13 00:53:30;;;;;;;18.45;16.98;;;;;;;24.01;51.27;100284.16;4975962;28;96937;-77
2023/08/13 00:55:56;;;;;;;19.17;17.67;;;;;;;24.12;51.16;100276.00;4958105;28;98585;-77
2023/08/13 00:58:22;;;;;;;19.65;18.35;;;;;;;24.13;50.95;100275.84;4970037;28;100072;-77
2023/08/13 01:00:48;;;;;;;18.85;17.50;;;;;;;24.21;50.80;100267.09;4961895;28;96754;-77
2023/08/13 01:03:14;;;;;;;19.20;17.67;;;;;;;24.27;50.29;100273.75;4992095;28;96870;-77
2023/08/13 01:05:53;;;;;;;18.70;17.23;;;;;;;24.35;50.12;100284.59;4991995;28;99065;-78
2023/08/13 01:08:33;;;;;;;19.23;17.75;;;;;;;24.33;50.27;100275.84;4981465;28;100852;-77
2023/08/13 01:11:08;;;;;;;21.80;17.77;;;;;;;24.36;49.95;100276.41;4962365;28;96776;-78
2023/08/13 01:13:46;;;;;;;19.33;17.95;;;;;;;24.42;49.84;100274.16;4982536;28;96822;-78
2023/08/13 01:16:12;;;;;;;19.38;17.80;;;;;;;24.45;49.83;100273.91;4980007;28;98974;-78
2023/08/13 01:18:39;;;;;;;19.27;17.60;;;;;;;24.44;49.54;100281.09;4969267;28;98670;-78
2023/08/13 01:21:05;;;;;;;18.38;17.23;;;;;;;24.50;49.68;100279.69;4959061;28;97405;-78
2023/08/13 01:23:31;;;;;;;19.00;17.38;;;;;;;24.53;49.78;100282.09;4975489;28;96967;-78
2023/08/13 01:25:58;;;;;;;19.58;18.00;;;;;;;24.55;49.55;100288.13;4992576;28;99128;-77
2023/08/13 01:28:34;;;;;;;20.35;18.70;;;;;;;24.57;49.82;100280.78;4975198;28;99180;-77
2023/08/13 01:31:24;;;;;;;19.52;17.88;;;;;;;24.57;49.77;100294.22;4957359;28;96862;-77
2023/08/13 01:33:50;;;;;;;18.52;17.33;;;;;;;24.56;49.90;100282.63;4960426;28;97502;-77
2023/08/13 01:36:17;;;;;;;21.08;19.02;;;;;;;24.59;49.73;100287.72;4954563;28;100871;-77
2023/08/13 01:38:43;;;;;;;19.02;17.63;;;;;;;24.60;49.82;100286.72;4975137;28;98552;-77
2023/08/13 01:41:09;;;;;;;19.98;18.05;;;;;;;24.56;49.84;100276.44;4974966;28;96924;-78
2023/08/13 01:43:35;;;;;;;19.77;17.95;;;;;;;24.56;49.96;100279.13;4993548;28;97186;-78
2023/08/13 01:46:01;;;;;;;19.33;17.48;;;;;;;24.58;50.11;100282.47;4980541;28;99303;-77
2023/08/13 01:48:28;;;;;;;19.00;17.40;;;;;;;24.54;50.42;100278.41;4963265;28;100414;-78
2023/08/13 01:50:54;;;;;;;20.23;17.92;;;;;;;24.52;50.40;100283.94;4978027;28;96680;-78
2023/08/13 01:53:19;;;;;;;18.42;17.13;;;;;;;24.53;50.43;100290.13;4970353;28;96870;-78
2023/08/13 01:55:45;;;;;;;19.55;17.83;;;;;;;24.50;50.32;100283.22;4981910;28;98423;-78
2023/08/13 01:58:11;;;;;;;19.70;17.60;;;;;;;24.50;50.72;100290.41;4981456;28;98854;-78
2023/08/13 02:00:36;;;;;;;19.98;18.13;;;;;;;24.50;50.75;100290.41;4973500;28;96946;-78
2023/08/13 02:03:02;;;;;;;19.15;17.80;;;;;;;24.48;50.81;100290.53;4993042;28;98070;-77
2023/08/13 02:05:28;;;;;;;20.05;18.20;;;;;;;24.48;50.88;100292.38;4989930;28;98627;-77
2023/08/13 02:07:53;;;;;;;19.65;18.30;;;;;;;24.47;51.01;100294.22;4992600;28;98719;-78
2023/08/13 02:10:21;;;;;;;19.05;17.48;;;;;;;24.44;51.02;100289.16;4974151;28;96806;-77
2023/08/13 02:12:47;;;;;;;18.48;17.25;;;;;;;24.44;51.30;100301.72;4989020;28;96770;-77
2023/08/13 02:15:13;;;;;;;19.38;17.73;;;;;;;24.38;51.33;100306.63;4983084;28;98787;-78
2023/08/13 02:17:43;;;;;;;19.85;18.10;;;;;;;24.32;51.68;100299.16;4968360;28;100434;-78
2023/08/13 02:20:10;;;;;;;18.83;17.15;;;;;;;24.32;51.65;100306.34;4986509;28;96804;-78
2023/08/13 02:22:36;;;;;;;19.40;18.00;;;;;;;24.28;51.60;100303.09;4986498;28;96875;-78
2023/08/13 02:25:01;;;;;;;18.77;17.15;;;;;;;24.25;51.61;100313.25;4992069;28;98950;-77
2023/08/13 02:27:27;;;;;;;19.50;18.15;;;;;;;24.18;52.05;100303.09;4992077;28;98651;-78
2023/08/13 02:29:52;;;;;;;19.08;17.63;;;;;;;24.17;52.53;100316.63;4991152;28;97466;-78
2023/08/13 02:32:18;;;;;;;18.75;17.23;;;;;;;24.14;52.82;100322.25;4990797;28;96713;-77
2023/08/13 02:34:45;;;;;;;18.75;17.35;;;;;;;24.15;52.94;100323.97;4990270;28;98747;-78
2023/08/13 02:37:10;;;;;;;19.48;17.75;;;;;;;24.12;53.05;100330.47;4969721;28;98704;-78
2023/08/13 02:39:36;;;;;;;19.33;17.88;;;;;;;24.10;53.20;100319.03;4982733;28;97473;-78
2023/08/13 02:42:03;;;;;;;19.00;17.60;;;;;;;24.12;53.41;100322.41;4990081;28;97620;-77
2023/08/13 02:44:28;;;;;;;19.55;18.08;;;;;;;24.09;53.46;100321.88;4987351;28;98056;-78
2023/08/13 02:46:54;;;;;;;19.35;17.77;;;;;;;24.07;53.70;100323.81;4986948;28;98835;-78
2023/08/13 02:49:19;;;;;;;18.77;17.60;;;;;;;24.04;53.72;100319.59;4982021;28;96759;-77
2023/08/13 02:51:45;;;;;;;18.85;17.25;;;;;;;24.01;53.65;100314.50;4990630;28;96958;-78
2023/08/13 02:54:11;;;;;;;19.10;17.70;;;;;;;23.99;53.49;100315.63;4969680;28;99055;-78
2023/08/13 02:56:37;;;;;;;18.58;17.17;;;;;;;24.01;53.62;100319.03;4970566;28;100175;-78
2023/08/13 02:59:03;;;;;;;20.23;18.35;;;;;;;23.98;53.61;100325.50;4982455;28;96645;-78
2023/08/13 03:01:28;;;;;;;20.10;18.67;;;;;;;23.95;53.73;100321.25;4991844;28;96954;-78
2023/08/13 03:03:54;;;;;;;18.35;17.00;;;;;;;23.94;53.63;100327.63;4957829;28;100038;-78
2023/08/13 03:06:24;;;;;;;19.15;17.85;;;;;;;23.95;53.83;100329.31;4983945;28;98806;-78
2023/08/13 03:08:50;;;;;;;20.15;18.55;;;;;;;23.93;54.00;100333.94;4974070;28;97094;-77
2023/08/13 03:11:16;;;;;;;19.88;18.27;;;;;;;23.93;53.99;100335.78;4982264;28;96888;-77
2023/08/13 03:13:42;;;;;;;19.30;18.05;;;;;;;23.95;53.88;100336.50;4989873;28;98700;-77
2023/08/13 03:16:08;;;;;;;19.70;18.25;;;;;;;23.93;54.42;100336.63;4973642;28;98665;-78
2023/08/13 03:18:34;;;;;;;20.33;18.25;;;;;;;23.88;54.42;100329.97;4973883;28;96707;-78
2023/08/13 03:21:02;;;;;;;19.30;17.67;;;;;;;23.86;54.26;100330.13;4969356;28;96863;-78
2023/08/13 03:23:29;;;;;;;20.17;18.40;;;;;;;23.90;54.34;100331.53;4991124;28;98694;-78
2023/08/13 03:25:55;;;;;;;19.45;17.95;;;;;;;23.86;54.21;100329.28;4965337;28;100519;-78
2023/08/13 03:28:20;;;;;;;20.35;18.33;;;;;;;23.90;54.19;100352.16;4976155;28;96790;-78
2023/08/13 03:30:46;;;;;;;19.88;18.25;;;;;;;23.87;54.08;100347.06;4961997;28;96862;-78
2023/08/13 03:33:13;;;;;;;19.00;17.70;;;;;;;23.88;53.96;100343.38;4976903;28;100435;-78
2023/08/13 03:35:39;;;;;;;19.55;18.20;;;;;;;23.82;54.09;100344.78;4976975;28;99939;-78
2023/08/13 03:38:05;;;;;;;19.75;18.10;;;;;;;23.83;53.60;100343.81;4964926;28;97271;-78
2023/08/13 03:40:32;;;;;;;19.48;18.00;;;;;;;23.84;53.70;100348.19;4976746;28;97192;-77
2023/08/13 03:42:57;;;;;;;19.65;18.23;;;;;;;23.89;53.90;100353.13;4994495;28;98755;-79
2023/08/13 03:45:24;;;;;;;19.70;17.80;;;;;;;23.86;53.65;100351.56;4976971;28;98711;-76
2023/08/13 03:47:49;;;;;;;18.02;16.70;;;;;;;23.93;53.70;100351.88;4990908;28;96958;-78
2023/08/13 03:50:15;;;;;;;19.58;17.90;;;;;;;23.96;53.61;100356.94;4971179;28;97342;-79
2023/08/13 03:52:41;;;;;;;17.15;15.95;;;;;;;23.96;53.57;100348.91;4982580;28;98026;-79
2023/08/13 03:55:07;;;;;;;17.85;16.55;;;;;;;24.02;53.57;100352.88;4987359;28;98930;-77
2023/08/13 03:57:34;;;;;;;17.92;16.83;;;;;;;24.05;53.40;100358.81;4963145;28;96738;-79
2023/08/13 04:00:00;;;;;;;18.05;16.92;;;;;;;24.05;53.52;100353.44;4966491;28;97061;-77
2023/08/13 04:02:25;;;;;;;18.02;16.60;;;;;;;24.08;53.33;100344.28;4972627;28;100693;-79
2023/08/13 04:04:51;;;;;;;17.55;16.15;;;;;;;24.11;53.40;100346.69;4965721;28;100307;-77
2023/08/13 04:07:17;;;;;;;19.15;17.42;;;;;;;24.13;53.28;100350.91;4965517;28;96904;-79
2023/08/13 04:09:43;;;;;;;18.13;16.45;;;;;;;24.15;53.46;100351.63;4994475;28;96835;-77
2023/08/13 04:12:08;;;;;;;18.23;16.80;;;;;;;24.15;53.68;100342.75;4975083;28;97959;-77
2023/08/13 04:14:34;;;;;;;18.92;17.08;;;;;;;24.23;53.66;100350.06;4987233;28;98155;-78
2023/08/13 04:17:00;;;;;;;17.45;16.17;;;;;;;24.27;53.59;100356.88;4973748;28;96806;-77
2023/08/13 04:19:26;;;;;;;17.65;16.55;;;;;;;24.29;53.14;100346.84;4976290;28;96937;-77
2023/08/13 04:21:51;;;;;;;18.75;17.40;;;;;;;24.32;53.24;100349.28;4973420;28;100347;-78
2023/08/13 04:24:17;;;;;;;18.58;17.27;;;;;;;24.32;53.33;100349.28;4989715;28;98923;-79
2023/08/13 04:26:43;;;;;;;18.02;16.75;;;;;;;24.35;53.19;100347.16;4983283;28;96625;-79
2023/08/13 04:29:09;;;;;;;18.15;16.95;;;;;;;24.49;52.99;100356.63;4969966;28;96972;-79
2023/08/13 04:31:36;;;;;;;18.33;17.08;;;;;;;24.45;53.01;100351.69;4962406;28;100819;-77
2023/08/13 04:34:02;;;;;;;18.45;17.15;;;;;;;24.51;52.81;100345.75;4992966;28;98586;-78
2023/08/13 04:36:28;;;;;;;17.45;16.17;;;;;;;24.66;52.45;100356.91;4969957;28;97012;-78
2023/08/13 04:38:53;;;;;;;18.85;17.40;;;;;;;24.65;52.55;100357.91;4980605;28;97278;-79
2023/08/13 04:41:19;;;;;;;17.77;16.48;;;;;;;24.59;52.72;100353.94;4982638;28;99017;-79
2023/08/13 04:43:47;;;;;;;17.42;15.82;;;;;;;24.61;52.72;100355.50;4975435;28;99479;-78
2023/08/13 04:46:13;;;;;;;18.75;17.38;;;;;;;24.57;52.71;100351.41;4970661;28;96705;-78
2023/08/13 04:48:45;;;;;;;;;;;;;;;24.53;52.73;100360.72;4992706;28;97015;-77
2023/08/13 04:51:11;;;;;;;18.40;17.17;;;;;;;24.57;52.85;100358.59;4971644;28;100355;-78
2023/08/13 04:53:37;;;;;;;18.85;17.17;;;;;;;24.64;53.00;100362.44;4993335;28;97327;-78
2023/08/13 04:56:03;;;;;;;18.20;17.08;;;;;;;24.63;52.66;100366.09;4980916;28;96734;-78
2023/08/13 04:58:29;;;;;;;17.95;16.83;;;;;;;24.63;53.04;100363.41;4967966;28;96933;-78
2023/08/13 05:00:55;;;;;;;17.80;16.38;;;;;;;24.65;53.10;100376.69;4967778;28;100695;-78
2023/08/13 05:03:22;;;;;;;18.73;17.42;;;;;;;24.63;53.00;100374.97;4974485;28;98984;-78
2023/08/13 05:05:48;;;;;;;18.20;17.00;;;;;;;24.72;53.06;100377.81;4976664;28;96896;-78
2023/08/13 05:08:13;;;;;;;19.42;17.58;;;;;;;24.80;52.95;100384.16;4954966;28;96894;-78
2023/08/13 05:10:39;;;;;;;18.83;17.42;;;;;;;24.87;52.61;100388.94;4956236;28;100539;-79
2023/08/13 05:13:05;;;;;;;18.25;17.10;;;;;;;24.99;52.68;100395.88;4956562;28;99889;-79
2023/08/13 05:15:31;;;;;;;18.80;17.63;;;;;;;25.15;52.07;100389.94;4994057;28;97074;-79
2023/08/13 05:17:59;;;;;;;18.77;17.38;;;;;;;25.33;51.90;100390.88;4991939;28;96837;-79
2023/08/13 05:20:25;;;;;;;18.25;17.05;;;;;;;25.60;51.22;100386.53;4991732;28;99128;-79
2023/08/13 05:22:51;;;;;;;19.00;17.67;;;;;;;25.68;51.18;100382.13;4974128;28;98838;-79
2023/08/13 05:25:16;;;;;;;18.85;17.67;;;;;;;25.90;50.94;100388.16;4990540;28;96758;-79
2023/08/13 05:27:42;;;;;;;18.13;17.08;;;;;;;26.04;50.89;100389.50;4987040;28;96854;-79
2023/08/13 05:30:08;;;;;;;17.98;16.88;;;;;;;26.14;50.42;100399.19;4980207;28;97607;-79
2023/08/13 05:32:33;;;;;;;19.17;17.88;;;;;;;26.32;50.24;100392.97;4984305;28;98662;-79
2023/08/13 05:34:59;;;;;;;19.13;17.80;;;;;;;26.50;49.84;100385.81;4960662;28;96884;-79
2023/08/13 05:37:25;;;;;;;18.60;17.45;;;;;;;26.76;49.01;100390.41;4964391;28;97154;-79
2023/08/13 05:39:51;;;;;;;18.67;16.98;;;;;;;27.15;48.58;100392.75;4965600;28;100181;-79
2023/08/13 05:42:17;;;;;;;20.02;18.13;;;;;;;27.66;47.53;100391.88;4973695;28;100423;-79
2023/08/13 05:44:42;;;;;;;19.60;18.10;;;;;;;28.64;45.78;100399.47;4992066;28;96793;-79
2023/08/13 05:47:08;;;;;;;18.92;17.45;;;;;;;27.63;47.57;100396.75;4988695;28;96986;-79
2023/08/13 05:49:34;;;;;;;19.65;18.25;;;;;;;31.00;41.78;100402.34;4966301;28;100348;-79
2023/08/13 05:51:59;;;;;;;18.88;17.63;;;;;;;34.34;35.68;100394.59;4973792;28;99969;-79
2023/08/13 05:54:25;;;;;;;18.33;17.10;;;;;;;37.45;31.56;100390.09;4979073;28;97164;-79
2023/08/13 05:56:50;;;;;;;18.10;16.98;;;;;;;39.27;28.92;100398.09;4993074;28;97246;-80
2023/08/13 05:59:16;;;;;;;17.17;16.17;;;;;;;40.60;27.38;100400.00;4984901;28;99049;-80
2023/08/13 06:01:41;;;;;;;17.55;16.15;;;;;;;41.65;26.15;100392.84;4991313;28;98498;-80
2023/08/13 06:04:07;;;;;;;17.42;16.33;;;;;;;42.45;25.15;100396.00;4992784;28;97326;-80
2023/08/13 06:06:32;;;;;;;18.25;16.85;;;;;;;43.40;23.92;100391.50;4980490;28;96901;-80
2023/08/13 06:08:58;;;;;;;17.63;16.48;;;;;;;44.12;23.40;100396.50;4992104;28;99255;-80
2023/08/13 06:11:23;;;;;;;19.27;18.05;;;;;;;44.62;22.71;100392.16;4979174;28;98647;-81
2023/08/13 06:13:52;;;;;;;18.05;16.95;;;;;;;45.47;21.98;100397.88;4991916;28;97110;-80
2023/08/13 06:16:17;;;;;;;18.67;17.13;;;;;;;46.05;21.39;100398.22;4990342;28;96857;-78
2023/08/13 06:18:43;;;;;;;16.90;15.80;;;;;;;46.82;20.76;100388.50;4987179;28;98211;-80
2023/08/13 06:21:08;;;;;;;17.75;16.65;;;;;;;47.28;20.58;100394.44;4988487;28;98309;-80
2023/08/13 06:23:34;;;;;;;18.60;17.30;;;;;;;47.70;19.85;100392.81;4988350;28;96749;-80
2023/08/13 06:26:00;;;;;;;18.00;16.45;;;;;;;48.14;19.62;100388.09;4992382;28;96828;-78
2023/08/13 06:28:25;;;;;;;17.27;16.27;;;;;;;48.00;19.42;100379.63;4981024;28;98671;-81
2023/08/13 06:30:51;;;;;;;17.85;16.75;;;;;;;48.92;19.12;100387.38;4991626;28;98342;-81
2023/08/13 06:33:16;;;;;;;18.58;17.13;;;;;;;49.46;18.83;100386.91;4978381;28;98023;-79
2023/08/13 06:35:46;;;;;;;18.02;16.92;;;;;;;49.82;18.68;100386.97;4991380;28;96896;-81
2023/08/13 06:38:13;;;;;;;17.35;16.30;;;;;;;50.40;18.30;100397.38;4976089;28;99179;-79
2023/08/13 06:40:38;;;;;;;18.30;16.88;;;;;;;50.85;18.04;100397.34;4978084;28;98733;-80
2023/08/13 06:43:04;;;;;;;18.50;17.20;;;;;;;51.37;17.79;100402.38;4989631;28;96759;-81
2023/08/13 06:45:30;;;;;;;17.80;16.60;;;;;;;51.88;17.18;100402.84;4991971;28;96925;-80
2023/08/13 06:47:59;;;;;;;16.17;15.27;;;;;;;52.22;16.92;100402.91;4989309;28;99289;-80
2023/08/13 06:50:25;;;;;;;17.25;16.25;;;;;;;52.45;16.73;100397.94;4986863;28;98580;-80
2023/08/13 06:52:51;;;;;;;18.75;17.52;;;;;;;53.17;16.55;100404.69;4982838;28;96877;-80
2023/08/13 06:55:17;;;;;;;18.17;17.08;;;;;;;53.00;16.29;100395.53;4968537;28;96837;-80
2023/08/13 06:57:42;;;;;;;18.63;17.45;;;;;;;53.54;15.80;100396.59;4978998;28;99211;-80
2023/08/13 07:00:10;;;;;;;17.95;16.85;;;;;;;54.14;15.46;100404.94;4983985;28;98692;-80
2023/08/13 07:02:35;;;;;;;17.37;16.37;;;;;;;55.03;14.93;100404.56;4960223;28;97566;-80
2023/08/13 07:05:03;;;;;;;18.75;17.45;;;;;;;55.88;14.30;100403.69;4989311;28;96969;-81
2023/08/13 07:07:29;;;;;;;18.33;17.02;;;;;;;56.42;14.01;100403.28;4974288;28;98813;-81
2023/08/13 07:09:54;;;;;;;18.25;17.05;;;;;;;56.71;13.78;100409.72;4987132;28;97980;-81
2023/08/13 07:12:20;;;;;;;18.45;17.15;;;;;;;56.92;14.14;100407.47;4956131;28;96822;-81
2023/08/13 07:14:45;;;;;;;18.00;16.92;;;;;;;57.18;13.08;100419.41;4973211;28;96858;-81
2023/08/13 07:17:11;;;;;;;18.55;17.17;;;;;;;57.42;13.11;100424.00;4977950;28;98925;-81
2023/08/13 07:19:36;;;;;;;17.73;16.73;;;;;;;57.30;13.38;100410.84;4989974;28;98839;-81
2023/08/13 07:22:02;;;;;;;18.00;17.00;;;;;;;57.81;13.40;100405.22;4990156;28;96878;-81
2023/08/13 07:24:28;;;;;;;19.38;18.13;;;;;;;57.69;12.87;100410.94;4986606;28;96843;-80
2023/08/13 07:26:53;;;;;;;18.92;17.70;;;;;;;58.52;12.88;100408.66;4981701;28;99080;-81
2023/08/13 07:29:19;;;;;;;19.33;17.88;;;;;;;59.03;13.08;100413.22;4983563;28;98921;-81
2023/08/13 07:31:44;;;;;;;20.15;18.60;;;;;;;58.02;12.91;100419.75;4977735;28;96833;-81
2023/08/13 07:34:10;;;;;;;19.58;18.42;;;;;;;58.73;12.89;100411.09;4976545;28;97587;-79
2023/08/13 07:36:35;;;;;;;19.17;17.83;;;;;;;59.83;12.59;100410.41;4976048;28;98876;-81
2023/08/13 07:39:01;;;;;;;19.70;18.50;;;;;;;59.75;12.29;100415.97;4978767;28;98742;-81
2023/08/13 07:41:26;;;;;;;19.40;18.30;;;;;;;60.49;11.48;100408.81;4990203;28;96618;-81
2023/08/13 07:43:52;;;;;;;19.38;18.17;;;;;;;61.20;10.92;100399.31;4989455;28;96922;-81
2023/08/13 07:46:17;;;;;;;18.90;17.80;;;;;;;61.73;11.60;100402.47;4987864;28;99141;-81
2023/08/13 07:48:43;;;;;;;20.50;19.30;;;;;;;61.93;11.04;100399.34;4986473;28;98663;-82
2023/08/13 07:51:08;;;;;;;18.38;17.27;;;;;;;59.43;12.04;100406.19;4987275;28;96951;-81
2023/08/13 07:53:34;;;;;;;19.60;18.30;;;;;;;56.95;14.11;100414.38;4985361;28;96799;-82
2023/08/13 07:56:00;;;;;;;19.05;17.85;;;;;;;60.12;12.06;100415.25;4977525;28;99323;-81
2023/08/13 07:58:25;;;;;;;18.65;17.35;;;;;;;61.23;10.96;100401.34;4982783;28;98418;-82
2023/08/13 08:00:51;;;;;;;18.58;17.45;;;;;;;62.08;11.03;100401.00;4983891;28;96755;-81
2023/08/13 08:03:16;;;;;;;20.45;19.05;;;;;;;62.29;10.39;100396.63;4961186;28;96938;-82
2023/08/13 08:05:42;;;;;;;21.70;20.30;;;;;;;63.53;10.63;100397.81;4984125;28;98846;-82
2023/08/13 08:08:08;;;;;;;21.42;20.13;;;;;;;63.89;9.88;100395.69;4974280;28;98750;-82
2023/08/13 08:10:33;;;;;;;21.02;19.77;;;;;;;64.15;10.09;100393.53;4972174;28;96944;-80
2023/08/13 08:12:59;;;;;;;24.37;22.77;;;;;;;64.60;9.81;100394.44;4972141;28;96783;-79
2023/08/13 08:15:25;;;;;;;23.90;22.50;;;;;;;64.55;9.85;100389.16;4989482;28;99147;-82
2023/08/13 08:17:51;;;;;;;23.80;22.10;;;;;;;63.64;9.90;100387.25;4990479;28;97631;-79
2023/08/13 08:20:16;;;;;;;23.70;22.10;;;;;;;65.00;9.47;100394.13;4973510;28;96697;-82
2023/08/13 08:22:42;;;;;;;25.67;24.00;;;;;;;65.45;9.22;100391.22;4994223;28;96829;-80
2023/08/13 08:25:11;;;;;;;25.93;24.33;;;;;;;66.07;8.57;100404.28;4984496;28;98605;-80
2023/08/13 08:27:37;;;;;;;22.73;21.23;;;;;;;59.04;12.51;100397.91;4993833;28;98474;-82
2023/08/13 08:30:03;;;;;;;23.92;22.45;;;;;;;61.18;11.00;100396.84;4986852;28;96715;-79
2023/08/13 08:32:30;;;;;;;24.80;23.30;;;;;;;61.93;11.42;100396.50;4986314;28;96792;-81
2023/08/13 08:34:55;;;;;;;22.70;21.35;;;;;;;62.12;10.73;100392.53;4961163;28;98955;-81
2023/08/13 08:37:21;;;;;;;20.73;19.53;;;;;;;58.06;12.79;100394.44;4982591;28;99030;-81
2023/08/13 08:39:46;;;;;;;21.60;20.20;;;;;;;60.63;11.07;100391.09;4986970;28;96610;-81
2023/08/13 08:42:12;;;;;;;22.38;21.08;;;;;;;63.11;10.18;100388.97;4988638;28;96866;-79
2023/08/13 08:44:43;;;;;;;24.50;23.00;;;;;;;63.81;10.28;100385.53;4989012;28;99123;-79
2023/08/13 08:47:09;;;;;;;25.40;23.90;;;;;;;63.29;9.76;100377.59;4989472;28;98951;-80
2023/08/13 08:49:35;;;;;;;24.43;22.83;;;;;;;62.37;10.07;100384.03;4990462;28;97404;-81
2023/08/13 08:52:01;;;;;;;24.48;23.08;;;;;;;62.05;10.29;100390.44;4987933;28;96794;-79
2023/08/13 08:54:26;;;;;;;25.07;23.63;;;;;;;61.29;10.64;100379.94;4981995;28;99130;-81
2023/08/13 08:56:52;;;;;;;23.73;22.33;;;;;;;62.33;11.46;100384.06;4965258;28;98749;-81
2023/08/13 08:59:18;;;;;;;25.53;24.13;;;;;;;62.51;10.12;100380.44;4979035;28;96723;-81
2023/08/13 09:01:43;;;;;;;22.93;21.63;;;;;;;58.68;12.61;100383.97;4965963;28;96908;-81
2023/08/13 09:04:09;;;;;;;23.40;22.00;;;;;;;60.34;11.43;100368.16;4986091;28;99160;-81
2023/08/13 09:06:54;;;;;;;22.10;20.70;;;;;;;57.95;13.20;100374.41;4978164;28;98287;-81
2023/08/13 09:09:20;;;;;;;22.17;20.88;;;;;;;58.79;12.54;100372.03;4974632;28;97126;-81
2023/08/13 09:11:46;;;;;;;22.30;20.95;;;;;;;57.92;12.49;100366.69;4991340;28;96899;-81
2023/08/13 09:14:11;;;;;;;19.80;18.65;;;;;;;52.48;16.04;100374.03;4993223;28;98889;-81
2023/08/13 09:16:37;;;;;;;18.52;17.42;;;;;;;49.57;18.54;100380.84;4992265;28;98151;-81
2023/08/13 09:19:03;;;;;;;20.00;18.50;;;;;;;47.29;20.67;100381.38;4990949;28;96620;-80
2023/08/13 09:21:29;;;;;;;18.40;17.30;;;;;;;45.34;22.44;100385.44;4990824;28;96848;-80
2023/08/13 09:23:58;;;;;;;19.35;17.60;;;;;;;44.63;23.33;100397.41;4988454;28;99331;-80
2023/08/13 09:26:27;;;;;;;18.58;17.30;;;;;;;44.18;23.91;100396.22;4984378;28;98474;-80
2023/08/13 09:28:52;;;;;;;18.45;17.35;;;;;;;43.57;24.91;100396.84;4984708;28;97166;-80
2023/08/13 09:31:18;;;;;;;18.27;17.05;;;;;;;42.89;25.49;100395.84;4982075;28;96828;-80
2023/08/13 09:33:47;;;;;;;19.10;17.90;;;;;;;41.96;26.43;100404.28;4980015;28;97985;-80
2023/08/13 09:36:12;;;;;;;18.70;17.60;;;;;;;41.06;27.35;100406.31;4979448;28;99078;-80
2023/08/13 09:38:38;;;;;;;19.00;17.67;;;;;;;40.82;27.74;100400.13;4987537;28;96723;-80
2023/08/13 09:41:05;;;;;;;18.90;17.60;;;;;;;41.09;27.80;100400.31;4980382;28;96831;-80
2023/08/13 09:43:31;;;;;;;18.73;17.63;;;;;;;41.17;27.67;100400.69;4990838;28;98984;-80
2023/08/13 09:46:00;;;;;;;18.30;17.20;;;;;;;40.97;27.53;100383.84;4968796;28;97691;-79
2023/08/13 09:48:27;;;;;;;18.17;17.08;;;;;;;40.76;27.72;100387.34;4988261;28;96742;-79
2023/08/13 09:50:55;;;;;;;18.08;16.90;;;;;;;40.77;28.09;100397.28;4983269;28;96829;-79
2023/08/13 09:53:22;;;;;;;17.70;16.60;;;;;;;40.65;27.97;100391.88;4986331;28;98888;-80
2023/08/13 09:55:52;;;;;;;17.27;16.17;;;;;;;40.25;28.70;100388.09;4986925;28;98753;-79
2023/08/13 09:58:18;;;;;;;;;;;;;;;40.05;29.29;100387.69;4965538;28;96845;-79
2023/08/13 10:00:44;;;;;;;17.95;16.85;;;;;;;40.34;28.98;100387.72;4986729;28;96989;-79
2023/08/13 10:03:10;;;;;;;17.67;16.42;;;;;;;40.05;28.88;100387.69;4961217;28;99103;-80
2023/08/13 10:05:36;;;;;;;18.30;17.10;;;;;;;39.96;28.74;100395.47;4986244;28;97492;-79
2023/08/13 10:08:01;;;;;;;18.90;17.52;;;;;;;40.01;29.20;100401.09;4969653;28;97553;-79
2023/08/13 10:10:29;;;;;;;18.63;17.33;;;;;;;39.81;29.63;100395.19;4956113;28;96878;-79
2023/08/13 10:12:55;;;;;;;18.17;17.08;;;;;;;39.62;29.75;100383.47;4972627;28;99193;-80
2023/08/13 10:15:21;;;;;;;18.75;17.42;;;;;;;39.41;29.88;100397.84;4972707;28;98595;-79
2023/08/13 10:17:46;;;;;;;18.35;17.25;;;;;;;39.14;31.05;100399.16;4974700;28;96780;-79
2023/08/13 10:20:12;;;;;;;18.65;17.35;;;;;;;38.70;30.82;100393.13;4986812;28;97797;-79
2023/08/13 10:22:39;;;;;;;19.02;17.77;;;;;;;38.63;31.32;100402.53;4991840;28;98844;-79
2023/08/13 10:25:10;;;;;;;18.02;16.92;;;;;;;38.32;31.62;100396.22;4982931;28;98659;-79
2023/08/13 10:27:43;;;;;;;17.20;16.23;;;;;;;38.40;31.63;100400.56;4986486;28;96791;-79
2023/08/13 10:30:11;;;;;;;18.25;16.92;;;;;;;38.24;31.68;100407.50;4980005;28;96861;-79
2023/08/13 10:32:55;;;;;;;18.10;16.90;;;;;;;38.30;32.31;100411.22;4984519;28;98808;-79
2023/08/13 10:35:38;;;;;;;18.45;17.35;;;;;;;38.29;31.94;100402.16;4983252;28;99025;-80
2023/08/13 10:38:04;;;;;;;16.33;15.43;;;;;;;38.13;32.36;100391.84;4959012;28;97075;-79
2023/08/13 10:40:30;;;;;;;17.20;16.20;;;;;;;37.53;32.01;100404.38;4977204;28;98556;-79
2023/08/13 10:42:57;;;;;;;16.65;15.50;;;;;;;37.24;32.32;100407.81;4988660;28;99429;-79
2023/08/13 10:45:25;;;;;;;17.23;15.95;;;;;;;37.19;33.52;100411.22;4989070;28;98115;-79
2023/08/13 10:47:58;;;;;;;17.50;16.40;;;;;;;37.04;33.53;100410.72;4987815;28;96841;-79
2023/08/13 10:50:35;;;;;;;16.80;15.80;;;;;;;36.88;33.28;100412.06;4987589;28;96942;-79
2023/08/13 10:53:03;;;;;;;17.08;15.98;;;;;;;36.77;33.82;100399.97;4991859;28;98671;-79
2023/08/13 10:55:30;;;;;;;19.20;17.20;;;;;;;36.76;33.87;100403.75;4983874;28;98489;-79
2023/08/13 10:57:56;;;;;;;18.45;17.00;;;;;;;36.75;33.53;100401.25;4963968;28;96740;-79
2023/08/13 11:00:23;;;;;;;17.58;15.98;;;;;;;36.57;33.67;100396.56;4988949;28;96883;-80
2023/08/13 11:03:00;;;;;;;16.85;15.85;;;;;;;36.50;33.73;100399.28;4992447;28;99628;-79
2023/08/13 11:05:26;;;;;;;18.17;17.08;;;;;;;36.29;33.48;100397.75;4978477;28;98374;-79